sensor_id;sensor_type;location;lat;lon;timestamp;pressure;altitude;pressure_sealevel;temperature;humidity
48652;BME280;34442;52.362;-1.302;2022-12-18T00:01:17;100769.34;;;1.21;100.00
48652;BME280;34442;52.362;-1.302;2022-12-18T00:03:43;100768.09;;;1.25;100.00
48652;BME280;34442;52.362;-1.302;2022-12-18T00:06:08;100762.81;;;1.25;100.00
48652;BME280;34442;52.362;-1.302;2022-12-18T00:08:35;100766.28;;;1.16;100.00
48652;BME280;34442;52.362;-1.302;2022-12-18T00:11:07;100764.19;;;1.19;100.00
48652;BME280;34442;52.362;-1.302;2022-12-18T00:13:34;100771.56;;;1.16;100.00
48652;BME280;34442;52.362;-1.302;2022-12-18T00:16:07;100772.25;;;1.18;100.00
48652;BME280;34442;52.362;-1.302;2022-12-18T00:18:33;100772.25;;;1.18;100.00
48652;BME280;34442;52.362;-1.302;2022-12-18T00:21:00;100767.94;;;1.17;100.00
48652;BME280;34442;52.362;-1.302;2022-12-18T00:23:27;100758.03;;;1.19;100.00
48652;BME280;34442;52.362;-1.302;2022-12-18T00:25:53;100760.41;;;1.22;100.00
48652;BME280;34442;52.362;-1.302;2022-12-18T00:28:18;100756.78;;;1.23;100.00
48652;BME280;34442;52.362;-1.302;2022-12-18T00:30:43;100764.19;;;1.19;100.00
48652;BME280;34442;52.362;-1.302;2022-12-18T00:33:09;100761.56;;;1.19;100.00
48652;BME280;34442;52.362;-1.302;2022-12-18T00:35:34;100763.34;;;1.19;100.00
48652;BME280;34442;52.362;-1.302;2022-12-18T00:37:59;100762.91;;;1.14;100.00
48652;BME280;34442;52.362;-1.302;2022-12-18T00:40:25;100763.06;;;1.12;100.00
48652;BME280;34442;52.362;-1.302;2022-12-18T00:42:50;100770.03;;;1.13;100.00
48652;BME280;34442;52.362;-1.302;2022-12-18T00:45:27;100754.28;;;1.12;100.00
48652;BME280;34442;52.362;-1.302;2022-12-18T00:47:53;100753.28;;;1.03;100.00
48652;BME280;34442;52.362;-1.302;2022-12-18T00:50:20;100751.59;;;1.02;100.00
48652;BME280;34442;52.362;-1.302;2022-12-18T00:52:45;100750.50;;;1.05;100.00
48652;BME280;34442;52.362;-1.302;2022-12-18T00:55:11;100751.91;;;1.09;100.00
48652;BME280;34442;52.362;-1.302;2022-12-18T00:57:37;100746.59;;;1.09;100.00
48652;BME280;34442;52.362;-1.302;2022-12-18T01:00:04;100737.69;;;1.10;100.00
48652;BME280;34442;52.362;-1.302;2022-12-18T01:02:29;100742.00;;;1.11;100.00
48652;BME280;34442;52.362;-1.302;2022-12-18T01:04:58;100742.44;;;1.16;100.00
48652;BME280;34442;52.362;-1.302;2022-12-18T01:07:23;100746.91;;;1.15;100.00
48652;BME280;34442;52.362;-1.302;2022-12-18T01:09:49;100748.44;;;1.18;100.00
48652;BME280;34442;52.362;-1.302;2022-12-18T01:12:14;100745.22;;;1.14;100.00
48652;BME280;34442;52.362;-1.302;2022-12-18T01:14:40;100743.13;;;1.18;100.00
48652;BME280;34442;52.362;-1.302;2022-12-18T01:17:05;100738.50;;;0.91;100.00
48652;BME280;34442;52.362;-1.302;2022-12-18T01:19:31;100744.63;;;1.01;100.00
48652;BME280;34442;52.362;-1.302;2022-12-18T01:21:56;100736.00;;;0.99;100.00
48652;BME280;34442;52.362;-1.302;2022-12-18T01:24:22;100735.16;;;0.98;100.00
48652;BME280;34442;52.362;-1.302;2022-12-18T01:26:47;100732.94;;;1.04;100.00
48652;BME280;34442;52.362;-1.302;2022-12-18T01:29:12;100722.94;;;1.07;100.00
48652;BME280;34442;52.362;-1.302;2022-12-18T01:31:38;100714.13;;;1.07;100.00
48652;BME280;34442;52.362;-1.302;2022-12-18T01:34:05;100717.63;;;1.07;100.00
48652;BME280;34442;52.362;-1.302;2022-12-18T01:36:33;100715.66;;;1.09;100.00
48652;BME280;34442;52.362;-1.302;2022-12-18T01:39:04;100721.22;;;1.06;100.00
48652;BME280;34442;52.362;-1.302;2022-12-18T01:41:31;100715.09;;;0.96;100.00
48652;BME280;34442;52.362;-1.302;2022-12-18T01:49:57;100712.72;;;1.03;100.00
48652;BME280;34442;52.362;-1.302;2022-12-18T01:52:25;100713.13;;;0.98;100.00
48652;BME280;34442;52.362;-1.302;2022-12-18T01:54:51;100714.13;;;0.97;100.00
48652;BME280;34442;52.362;-1.302;2022-12-18T01:57:17;100714.69;;;1.01;100.00
48652;BME280;34442;52.362;-1.302;2022-12-18T01:59:45;100721.53;;;1.03;100.00
48652;BME280;34442;52.362;-1.302;2022-12-18T02:02:13;100716.75;;;1.07;100.00
48652;BME280;34442;52.362;-1.302;2022-12-18T02:04:39;100725.00;;;1.04;100.00
48652;BME280;34442;52.362;-1.302;2022-12-18T02:09:36;100720.13;;;1.09;100.00
48652;BME280;34442;52.362;-1.302;2022-12-18T02:12:18;100729.75;;;1.10;100.00
48652;BME280;34442;52.362;-1.302;2022-12-18T02:14:49;100732.38;;;1.10;100.00
48652;BME280;34442;52.362;-1.302;2022-12-18T02:17:22;100731.28;;;1.12;100.00
48652;BME280;34442;52.362;-1.302;2022-12-18T02:22:43;100737.94;;;0.26;100.00
48652;BME280;34442;52.362;-1.302;2022-12-18T02:25:33;100745.88;;;0.26;100.00
48652;BME280;34442;52.362;-1.302;2022-12-18T02:28:06;100754.06;;;0.23;100.00
48652;BME280;34442;52.362;-1.302;2022-12-18T02:30:35;100743.25;;;0.26;100.00
48652;BME280;34442;52.362;-1.302;2022-12-18T02:33:05;100754.66;;;0.27;100.00
48652;BME280;34442;52.362;-1.302;2022-12-18T02:35:32;100759.09;;;0.26;100.00
48652;BME280;34442;52.362;-1.302;2022-12-18T02:37:59;100758.28;;;0.26;100.00
48652;BME280;34442;52.362;-1.302;2022-12-18T02:40:26;100763.84;;;0.32;100.00
48652;BME280;34442;52.362;-1.302;2022-12-18T02:42:53;100761.50;;;0.29;100.00
48652;BME280;34442;52.362;-1.302;2022-12-18T02:45:19;100758.84;;;0.29;100.00
48652;BME280;34442;52.362;-1.302;2022-12-18T02:47:47;100751.75;;;0.30;100.00
48652;BME280;34442;52.362;-1.302;2022-12-18T02:50:41;100749.09;;;0.30;100.00
48652;BME280;34442;52.362;-1.302;2022-12-18T02:53:33;100738.94;;;0.25;100.00
48652;BME280;34442;52.362;-1.302;2022-12-18T02:56:07;100732.78;;;0.24;100.00
48652;BME280;34442;52.362;-1.302;2022-12-18T03:04:36;100726.56;;;0.05;100.00
48652;BME280;34442;52.362;-1.302;2022-12-18T03:07:05;100721.41;;;0.03;100.00
48652;BME280;34442;52.362;-1.302;2022-12-18T03:09:42;100713.59;;;0.02;100.00
48652;BME280;34442;52.362;-1.302;2022-12-18T03:12:24;100710.13;;;0.01;100.00
48652;BME280;34442;52.362;-1.302;2022-12-18T03:15:06;100719.28;;;-0.03;100.00
48652;BME280;34442;52.362;-1.302;2022-12-18T03:17:34;100710.59;;;-0.15;100.00
48652;BME280;34442;52.362;-1.302;2022-12-18T03:20:05;100709.03;;;-0.17;100.00
48652;BME280;34442;52.362;-1.302;2022-12-18T03:22:34;100691.50;;;-0.18;100.00
48652;BME280;34442;52.362;-1.302;2022-12-18T03:25:04;100692.09;;;-0.15;100.00
48652;BME280;34442;52.362;-1.302;2022-12-18T03:27:32;100687.91;;;-0.17;100.00
48652;BME280;34442;52.362;-1.302;2022-12-18T03:30:10;100685.97;;;-0.15;100.00
48652;BME280;34442;52.362;-1.302;2022-12-18T03:32:50;100689.31;;;-0.13;100.00
48652;BME280;34442;52.362;-1.302;2022-12-18T03:35:22;100685.97;;;-0.15;100.00
48652;BME280;34442;52.362;-1.302;2022-12-18T03:37:49;100678.44;;;-0.20;100.00
48652;BME280;34442;52.362;-1.302;2022-12-18T03:40:14;100669.53;;;-0.19;100.00
48652;BME280;34442;52.362;-1.302;2022-12-18T03:42:57;100659.56;;;-0.15;100.00
48652;BME280;34442;52.362;-1.302;2022-12-18T03:45:47;100656.66;;;-0.12;100.00
48652;BME280;34442;52.362;-1.302;2022-12-18T03:48:19;100655.78;;;-0.13;100.00
48652;BME280;34442;52.362;-1.302;2022-12-18T03:50:57;100650.91;;;-0.17;100.00
48652;BME280;34442;52.362;-1.302;2022-12-18T03:53:50;100663.03;;;-0.15;100.00
48652;BME280;34442;52.362;-1.302;2022-12-18T03:56:18;100664.19;;;-0.08;100.00
48652;BME280;34442;52.362;-1.302;2022-12-18T03:58:47;100657.88;;;-0.16;100.00
48652;BME280;34442;52.362;-1.302;2022-12-18T04:01:16;100644.41;;;-0.13;100.00
48652;BME280;34442;52.362;-1.302;2022-12-18T04:03:44;100637.88;;;-0.09;100.00
48652;BME280;34442;52.362;-1.302;2022-12-18T04:06:11;100633.97;;;-0.15;100.00
48652;BME280;34442;52.362;-1.302;2022-12-18T04:08:38;100631.59;;;-0.18;100.00
48652;BME280;34442;52.362;-1.302;2022-12-18T04:11:05;100628.44;;;-0.12;100.00
48652;BME280;34442;52.362;-1.302;2022-12-18T04:13:36;100624.97;;;-0.12;100.00
48652;BME280;34442;52.362;-1.302;2022-12-18T04:16:02;100612.69;;;-0.13;100.00
48652;BME280;34442;52.362;-1.302;2022-12-18T04:18:28;100615.72;;;-0.18;100.00
48652;BME280;34442;52.362;-1.302;2022-12-18T04:20:53;100612.25;;;-0.18;100.00
48652;BME280;34442;52.362;-1.302;2022-12-18T04:23:18;100607.22;;;-0.21;100.00
48652;BME280;34442;52.362;-1.302;2022-12-18T04:25:45;100596.44;;;0.22;100.00
48652;BME280;34442;52.362;-1.302;2022-12-18T04:28:10;100592.72;;;0.44;100.00
48652;BME280;34442;52.362;-1.302;2022-12-18T04:30:35;100596.03;;;0.36;100.00
48652;BME280;34442;52.362;-1.302;2022-12-18T04:33:01;100592.03;;;0.52;100.00
48652;BME280;34442;52.362;-1.302;2022-12-18T04:35:26;100580.38;;;0.54;100.00
48652;BME280;34442;52.362;-1.302;2022-12-18T04:37:52;100586.59;;;0.43;100.00
48652;BME280;34442;52.362;-1.302;2022-12-18T04:40:17;100567.25;;;0.33;100.00
48652;BME280;34442;52.362;-1.302;2022-12-18T04:42:43;100566.53;;;0.41;100.00
48652;BME280;34442;52.362;-1.302;2022-12-18T04:45:08;100556.94;;;0.40;100.00
48652;BME280;34442;52.362;-1.302;2022-12-18T04:47:34;100559.03;;;0.36;100.00
48652;BME280;34442;52.362;-1.302;2022-12-18T04:49:59;100547.19;;;0.31;100.00
48652;BME280;34442;52.362;-1.302;2022-12-18T04:52:25;100545.69;;;0.38;100.00
48652;BME280;34442;52.362;-1.302;2022-12-18T04:54:50;100539.94;;;0.33;100.00
48652;BME280;34442;52.362;-1.302;2022-12-18T04:57:15;100526.31;;;0.18;100.00
48652;BME280;34442;52.362;-1.302;2022-12-18T04:59:43;100515.31;;;0.13;100.00
48652;BME280;34442;52.362;-1.302;2022-12-18T05:02:08;100515.56;;;0.00;100.00
48652;BME280;34442;52.362;-1.302;2022-12-18T05:04:33;100515.16;;;0.05;100.00
48652;BME280;34442;52.362;-1.302;2022-12-18T05:06:59;100500.81;;;0.07;100.00
48652;BME280;34442;52.362;-1.302;2022-12-18T05:09:24;100493.19;;;0.14;100.00
48652;BME280;34442;52.362;-1.302;2022-12-18T05:11:49;100495.81;;;0.14;100.00
48652;BME280;34442;52.362;-1.302;2022-12-18T05:14:15;100485.94;;;0.16;100.00
48652;BME280;34442;52.362;-1.302;2022-12-18T05:16:40;100475.78;;;0.11;100.00
48652;BME280;34442;52.362;-1.302;2022-12-18T05:19:06;100491.53;;;0.22;100.00
48652;BME280;34442;52.362;-1.302;2022-12-18T05:21:31;100488.88;;;0.13;100.00
48652;BME280;34442;52.362;-1.302;2022-12-18T05:23:57;100481.91;;;0.12;100.00
48652;BME280;34442;52.362;-1.302;2022-12-18T05:26:22;100463.53;;;0.20;100.00
48652;BME280;34442;52.362;-1.302;2022-12-18T05:28:47;100478.31;;;0.13;100.00
48652;BME280;34442;52.362;-1.302;2022-12-18T05:31:13;100481.47;;;0.07;100.00
48652;BME280;34442;52.362;-1.302;2022-12-18T05:33:39;100485.53;;;0.11;100.00
48652;BME280;34442;52.362;-1.302;2022-12-18T05:36:06;100487.47;;;0.09;100.00
48652;BME280;34442;52.362;-1.302;2022-12-18T05:38:34;100474.38;;;0.07;100.00
48652;BME280;34442;52.362;-1.302;2022-12-18T05:41:00;100490.13;;;0.18;100.00
48652;BME280;34442;52.362;-1.302;2022-12-18T05:43:27;100498.06;;;0.09;100.00
48652;BME280;34442;52.362;-1.302;2022-12-18T05:45:53;100499.56;;;0.11;100.00
48652;BME280;34442;52.362;-1.302;2022-12-18T05:48:19;100501.13;;;0.14;100.00
48652;BME280;34442;52.362;-1.302;2022-12-18T05:50:45;100506.13;;;0.17;100.00
48652;BME280;34442;52.362;-1.302;2022-12-18T05:53:13;100489.97;;;0.10;100.00
48652;BME280;34442;52.362;-1.302;2022-12-18T05:55:40;100482.19;;;0.09;100.00
48652;BME280;34442;52.362;-1.302;2022-12-18T05:58:07;100480.53;;;0.17;100.00
48652;BME280;34442;52.362;-1.302;2022-12-18T06:00:35;100487.63;;;0.17;100.00
48652;BME280;34442;52.362;-1.302;2022-12-18T06:03:01;100492.63;;;0.20;100.00
48652;BME280;34442;52.362;-1.302;2022-12-18T06:05:27;100495.25;;;0.20;100.00
48652;BME280;34442;52.362;-1.302;2022-12-18T06:07:53;100493.59;;;0.29;100.00
48652;BME280;34442;52.362;-1.302;2022-12-18T06:10:18;100485.00;;;0.36;100.00
48652;BME280;34442;52.362;-1.302;2022-12-18T06:12:44;100479.84;;;0.35;100.00
48652;BME280;34442;52.362;-1.302;2022-12-18T06:15:09;100475.66;;;0.32;100.00
48652;BME280;34442;52.362;-1.302;2022-12-18T06:17:36;100475.25;;;0.37;100.00
48652;BME280;34442;52.362;-1.302;2022-12-18T06:20:02;100477.78;;;0.38;100.00
48652;BME280;34442;52.362;-1.302;2022-12-18T06:22:30;100471.50;;;0.30;100.00
48652;BME280;34442;52.362;-1.302;2022-12-18T06:24:56;100466.47;;;0.27;100.00
48652;BME280;34442;52.362;-1.302;2022-12-18T06:27:21;100454.78;;;0.19;100.00
48652;BME280;34442;52.362;-1.302;2022-12-18T06:29:47;100461.88;;;0.09;100.00
48652;BME280;34442;52.362;-1.302;2022-12-18T06:32:12;100456.59;;;0.19;100.00
48652;BME280;34442;52.362;-1.302;2022-12-18T06:34:38;100461.16;;;0.07;100.00
48652;BME280;34442;52.362;-1.302;2022-12-18T06:37:03;100469.81;;;0.09;100.00
48652;BME280;34442;52.362;-1.302;2022-12-18T06:39:29;100464.38;;;0.11;100.00
48652;BME280;34442;52.362;-1.302;2022-12-18T06:41:54;100460.34;;;0.07;100.00
48652;BME280;34442;52.362;-1.302;2022-12-18T06:44:20;100455.06;;;0.07;100.00
48652;BME280;34442;52.362;-1.302;2022-12-18T06:46:45;100454.22;;;0.16;100.00
48652;BME280;34442;52.362;-1.302;2022-12-18T06:49:11;100447.28;;;0.05;100.00
48652;BME280;34442;52.362;-1.302;2022-12-18T06:51:37;100434.19;;;0.04;100.00
48652;BME280;34442;52.362;-1.302;2022-12-18T06:54:02;100422.63;;;-0.05;100.00
48652;BME280;34442;52.362;-1.302;2022-12-18T06:56:28;100422.78;;;-0.07;100.00
48652;BME280;34442;52.362;-1.302;2022-12-18T06:58:53;100424.44;;;-0.15;100.00
48652;BME280;34442;52.362;-1.302;2022-12-18T07:01:19;100424.56;;;-0.17;100.00
48652;BME280;34442;52.362;-1.302;2022-12-18T07:03:44;100429.56;;;-0.14;100.00
48652;BME280;34442;52.362;-1.302;2022-12-18T07:06:15;100420.81;;;-0.05;100.00
48652;BME280;34442;52.362;-1.302;2022-12-18T07:08:41;100421.53;;;0.07;100.00
48652;BME280;34442;52.362;-1.302;2022-12-18T07:11:06;100415.56;;;0.05;100.00
48652;BME280;34442;52.362;-1.302;2022-12-18T07:13:32;100394.00;;;0.00;100.00
48652;BME280;34442;52.362;-1.302;2022-12-18T07:16:12;100381.31;;;0.04;100.00
48652;BME280;34442;52.362;-1.302;2022-12-18T07:18:37;100375.22;;;-0.07;100.00
48652;BME280;34442;52.362;-1.302;2022-12-18T07:21:05;100369.91;;;-0.26;100.00
48652;BME280;34442;52.362;-1.302;2022-12-18T07:23:32;100372.97;;;-0.21;100.00
48652;BME280;34442;52.362;-1.302;2022-12-18T07:26:01;100389.78;;;-0.22;100.00
48652;BME280;34442;52.362;-1.302;2022-12-18T07:28:27;100392.63;;;-0.04;100.00
48652;BME280;34442;52.362;-1.302;2022-12-18T07:30:52;100399.28;;;0.10;100.00
48652;BME280;34442;52.362;-1.302;2022-12-18T07:33:18;100398.28;;;0.20;100.00
48652;BME280;34442;52.362;-1.302;2022-12-18T07:35:43;100408.31;;;0.27;100.00
48652;BME280;34442;52.362;-1.302;2022-12-18T07:38:08;100418.06;;;0.26;100.00
48652;BME280;34442;52.362;-1.302;2022-12-18T07:40:34;100420.44;;;0.39;100.00
48652;BME280;34442;52.362;-1.302;2022-12-18T07:43:00;100422.81;;;0.42;100.00
48652;BME280;34442;52.362;-1.302;2022-12-18T07:45:25;100426.84;;;0.46;100.00
48652;BME280;34442;52.362;-1.302;2022-12-18T07:47:50;100424.63;;;0.41;100.00
48652;BME280;34442;52.362;-1.302;2022-12-18T07:50:16;100427.25;;;0.41;100.00
48652;BME280;34442;52.362;-1.302;2022-12-18T07:52:41;100422.66;;;0.34;100.00
48652;BME280;34442;52.362;-1.302;2022-12-18T07:55:07;100416.66;;;0.32;100.00
48652;BME280;34442;52.362;-1.302;2022-12-18T07:57:32;100436.16;;;0.50;100.00
48652;BME280;34442;52.362;-1.302;2022-12-18T07:59:57;100436.72;;;0.54;100.00
48652;BME280;34442;52.362;-1.302;2022-12-18T08:02:23;100440.19;;;0.54;100.00
48652;BME280;34442;52.362;-1.302;2022-12-18T08:04:48;100442.69;;;0.56;100.00
48652;BME280;34442;52.362;-1.302;2022-12-18T08:07:14;100426.97;;;0.44;100.00
48652;BME280;34442;52.362;-1.302;2022-12-18T08:09:39;100424.88;;;0.38;100.00
48652;BME280;34442;52.362;-1.302;2022-12-18T08:12:05;100424.47;;;0.62;100.00
48652;BME280;34442;52.362;-1.302;2022-12-18T08:14:30;100397.72;;;0.56;100.00
48652;BME280;34442;52.362;-1.302;2022-12-18T08:16:56;100407.91;;;0.51;100.00
48652;BME280;34442;52.362;-1.302;2022-12-18T08:19:21;100422.34;;;0.56;100.00
48652;BME280;34442;52.362;-1.302;2022-12-18T08:21:46;100421.81;;;0.62;100.00
48652;BME280;34442;52.362;-1.302;2022-12-18T08:24:12;100412.47;;;0.68;100.00
48652;BME280;34442;52.362;-1.302;2022-12-18T08:26:37;100421.91;;;0.80;100.00
48652;BME280;34442;52.362;-1.302;2022-12-18T08:29:03;100415.63;;;0.81;100.00
48652;BME280;34442;52.362;-1.302;2022-12-18T08:31:29;100430.25;;;0.85;100.00
48652;BME280;34442;52.362;-1.302;2022-12-18T08:33:55;100429.97;;;0.88;100.00
48652;BME280;34442;52.362;-1.302;2022-12-18T08:36:21;100427.88;;;0.92;100.00
48652;BME280;34442;52.362;-1.302;2022-12-18T08:38:47;100428.56;;;0.94;100.00
48652;BME280;34442;52.362;-1.302;2022-12-18T08:41:14;100390.72;;;0.74;100.00
48652;BME280;34442;52.362;-1.302;2022-12-18T08:43:41;100432.19;;;0.93;100.00
48652;BME280;34442;52.362;-1.302;2022-12-18T08:46:26;100394.47;;;0.81;100.00
48652;BME280;34442;52.362;-1.302;2022-12-18T08:48:53;100404.19;;;0.90;100.00
48652;BME280;34442;52.362;-1.302;2022-12-18T08:51:20;100421.75;;;0.91;100.00
48652;BME280;34442;52.362;-1.302;2022-12-18T08:53:46;100402.91;;;0.94;100.00
48652;BME280;34442;52.362;-1.302;2022-12-18T08:56:12;100400.47;;;0.83;100.00
48652;BME280;34442;52.362;-1.302;2022-12-18T08:58:38;100409.47;;;1.00;100.00
48652;BME280;34442;52.362;-1.302;2022-12-18T09:01:05;100410.00;;;1.04;100.00
48652;BME280;34442;52.362;-1.302;2022-12-18T09:03:31;100404.00;;;1.02;100.00
48652;BME280;34442;52.362;-1.302;2022-12-18T09:05:56;100391.50;;;0.94;100.00
48652;BME280;34442;52.362;-1.302;2022-12-18T09:08:22;100386.22;;;0.94;100.00
48652;BME280;34442;52.362;-1.302;2022-12-18T09:10:49;100384.38;;;0.94;100.00
48652;BME280;34442;52.362;-1.302;2022-12-18T09:13:16;100394.25;;;1.02;100.00
48652;BME280;34442;52.362;-1.302;2022-12-18T09:16:00;100386.63;;;0.99;100.00
48652;BME280;34442;52.362;-1.302;2022-12-18T09:18:28;100385.59;;;1.10;100.00
48652;BME280;34442;52.362;-1.302;2022-12-18T09:20:53;100385.47;;;1.11;100.00
48652;BME280;34442;52.362;-1.302;2022-12-18T09:23:19;100389.63;;;1.14;100.00
48652;BME280;34442;52.362;-1.302;2022-12-18T09:25:45;100392.28;;;1.14;100.00
48652;BME280;34442;52.362;-1.302;2022-12-18T09:28:17;100372.34;;;1.19;100.00
48652;BME280;34442;52.362;-1.302;2022-12-18T09:30:45;100374.34;;;1.08;100.00
48652;BME280;34442;52.362;-1.302;2022-12-18T09:33:11;100369.44;;;1.13;100.00
48652;BME280;34442;52.362;-1.302;2022-12-18T09:35:41;100373.91;;;1.12;100.00
48652;BME280;34442;52.362;-1.302;2022-12-18T09:38:08;100369.44;;;1.13;100.00
48652;BME280;34442;52.362;-1.302;2022-12-18T09:40:43;100378.81;;;1.07;100.00
48652;BME280;34442;52.362;-1.302;2022-12-18T09:43:18;100375.81;;;1.20;100.00
48652;BME280;34442;52.362;-1.302;2022-12-18T09:45:49;100376.50;;;1.22;100.00
48652;BME280;34442;52.362;-1.302;2022-12-18T09:48:23;100364.41;;;1.19;100.00
48652;BME280;34442;52.362;-1.302;2022-12-18T09:50:52;100355.75;;;1.17;100.00
48652;BME280;34442;52.362;-1.302;2022-12-18T09:53:24;100346.16;;;1.16;100.00
48652;BME280;34442;52.362;-1.302;2022-12-18T09:55:52;100335.84;;;1.13;100.00
48652;BME280;34442;52.362;-1.302;2022-12-18T09:58:32;100330.56;;;1.13;100.00
48652;BME280;34442;52.362;-1.302;2022-12-18T10:00:59;100324.16;;;1.06;100.00
48652;BME280;34442;52.362;-1.302;2022-12-18T10:03:24;100320.78;;;1.14;100.00
48652;BME280;34442;52.362;-1.302;2022-12-18T10:08:50;100316.38;;;1.05;100.00
48652;BME280;34442;52.362;-1.302;2022-12-18T10:14:25;100286.28;;;1.06;100.00
48652;BME280;34442;52.362;-1.302;2022-12-18T10:17:22;100274.50;;;1.18;100.00
48652;BME280;34442;52.362;-1.302;2022-12-18T10:19:56;100270.50;;;1.14;100.00
48652;BME280;34442;52.362;-1.302;2022-12-18T10:23:03;100266.19;;;1.13;100.00
48652;BME280;34442;52.362;-1.302;2022-12-18T10:28:14;100236.97;;;1.05;100.00
48652;BME280;34442;52.362;-1.302;2022-12-18T10:30:41;100231.41;;;1.08;100.00
48652;BME280;34442;52.362;-1.302;2022-12-18T10:33:11;100216.47;;;1.07;100.00
48652;BME280;34442;52.362;-1.302;2022-12-18T10:35:41;100207.69;;;1.06;100.00
48652;BME280;34442;52.362;-1.302;2022-12-18T10:40:52;100200.91;;;1.04;100.00
48652;BME280;34442;52.362;-1.302;2022-12-18T10:43:37;100186.59;;;0.96;100.00
48652;BME280;34442;52.362;-1.302;2022-12-18T10:51:35;100177.47;;;1.09;100.00
48652;BME280;34442;52.362;-1.302;2022-12-18T10:54:13;100174.97;;;1.07;100.00
48652;BME280;34442;52.362;-1.302;2022-12-18T10:56:40;100172.75;;;1.03;100.00
48652;BME280;34442;52.362;-1.302;2022-12-18T10:59:15;100168.25;;;1.13;100.00
48652;BME280;34442;52.362;-1.302;2022-12-18T11:01:52;100158.56;;;1.21;100.00
48652;BME280;34442;52.362;-1.302;2022-12-18T11:04:29;100153.03;;;1.15;100.00
48652;BME280;34442;52.362;-1.302;2022-12-18T11:06:59;100156.59;;;1.23;100.00
48652;BME280;34442;52.362;-1.302;2022-12-18T11:09:28;100150.31;;;1.24;100.00
48652;BME280;34442;52.362;-1.302;2022-12-18T11:11:58;100146.03;;;1.23;100.00
48652;BME280;34442;52.362;-1.302;2022-12-18T11:14:42;100131.31;;;1.29;100.00
48652;BME280;34442;52.362;-1.302;2022-12-18T11:20:04;100125.63;;;1.42;100.00
48652;BME280;34442;52.362;-1.302;2022-12-18T11:22:33;100118.69;;;1.41;100.00
48652;BME280;34442;52.362;-1.302;2022-12-18T11:27:38;100137.06;;;1.42;100.00
48652;BME280;34442;52.362;-1.302;2022-12-18T11:30:29;100138.25;;;1.48;100.00
48652;BME280;34442;52.362;-1.302;2022-12-18T11:33:19;100143.78;;;1.55;100.00
48652;BME280;34442;52.362;-1.302;2022-12-18T11:36:02;100117.69;;;1.42;100.00
48652;BME280;34442;52.362;-1.302;2022-12-18T11:38:35;100116.16;;;1.39;100.00
48652;BME280;34442;52.362;-1.302;2022-12-18T11:41:07;100108.03;;;1.33;100.00
48652;BME280;34442;52.362;-1.302;2022-12-18T11:43:40;100102.88;;;1.31;100.00
48652;BME280;34442;52.362;-1.302;2022-12-18T11:46:16;100099.19;;;1.24;100.00
48652;BME280;34442;52.362;-1.302;2022-12-18T11:48:57;100093.16;;;1.40;100.00
48652;BME280;34442;52.362;-1.302;2022-12-18T11:51:32;100086.13;;;1.48;100.00
48652;BME280;34442;52.362;-1.302;2022-12-18T11:54:00;100064.56;;;1.43;100.00
48652;BME280;34442;52.362;-1.302;2022-12-18T11:56:44;100064.50;;;1.35;100.00
48652;BME280;34442;52.362;-1.302;2022-12-18T12:02:02;100021.00;;;1.38;100.00
48652;BME280;34442;52.362;-1.302;2022-12-18T12:10:01;100026.91;;;1.58;100.00
48652;BME280;34442;52.362;-1.302;2022-12-18T12:12:57;100016.41;;;1.74;100.00
48652;BME280;34442;52.362;-1.302;2022-12-18T12:18:43;100001.53;;;1.81;100.00
48652;BME280;34442;52.362;-1.302;2022-12-18T12:34:57;99952.88;;;1.90;100.00
48652;BME280;34442;52.362;-1.302;2022-12-18T12:40:13;99948.91;;;1.94;100.00
48652;BME280;34442;52.362;-1.302;2022-12-18T12:42:44;99936.50;;;2.03;100.00
48652;BME280;34442;52.362;-1.302;2022-12-18T12:46:04;99923.38;;;2.02;100.00
48652;BME280;34442;52.362;-1.302;2022-12-18T12:51:20;99920.22;;;1.90;100.00
48652;BME280;34442;52.362;-1.302;2022-12-18T12:53:47;99912.78;;;1.93;100.00
48652;BME280;34442;52.362;-1.302;2022-12-18T12:56:16;99915.44;;;1.93;100.00
48652;BME280;34442;52.362;-1.302;2022-12-18T12:59:37;99893.75;;;1.98;100.00
48652;BME280;34442;52.362;-1.302;2022-12-18T13:01:43;99899.38;;;2.03;100.00
48652;BME280;34442;52.362;-1.302;2022-12-18T13:04:41;99887.44;;;1.99;100.00
48652;BME280;34442;52.362;-1.302;2022-12-18T13:07:41;99886.94;;;1.95;100.00
48652;BME280;34442;52.362;-1.302;2022-12-18T13:13:16;99889.78;;;2.02;100.00
48652;BME280;34442;52.362;-1.302;2022-12-18T13:16:06;99887.28;;;2.01;100.00
48652;BME280;34442;52.362;-1.302;2022-12-18T13:18:57;99887.97;;;2.19;100.00
48652;BME280;34442;52.362;-1.302;2022-12-18T13:21:52;99887.78;;;2.12;100.00
48652;BME280;34442;52.362;-1.302;2022-12-18T13:24:38;99867.25;;;2.14;100.00
48652;BME280;34442;52.362;-1.302;2022-12-18T13:39:32;99827.81;;;2.19;100.00
48652;BME280;34442;52.362;-1.302;2022-12-18T13:45:42;99818.34;;;2.33;100.00
48652;BME280;34442;52.362;-1.302;2022-12-18T13:48:33;99813.72;;;2.27;100.00
48652;BME280;34442;52.362;-1.302;2022-12-18T13:51:22;99805.59;;;2.20;100.00
48652;BME280;34442;52.362;-1.302;2022-12-18T13:54:00;99786.22;;;2.20;100.00
48652;BME280;34442;52.362;-1.302;2022-12-18T13:56:29;99787.22;;;2.19;100.00
48652;BME280;34442;52.362;-1.302;2022-12-18T14:01:44;99761.00;;;2.32;100.00
48652;BME280;34442;52.362;-1.302;2022-12-18T14:04:19;99753.88;;;2.33;100.00
48652;BME280;34442;52.362;-1.302;2022-12-18T14:06:46;99760.19;;;2.32;100.00
48652;BME280;34442;52.362;-1.302;2022-12-18T14:09:15;99745.59;;;2.28;100.00
48652;BME280;34442;52.362;-1.302;2022-12-18T14:11:46;99743.97;;;2.27;100.00
48652;BME280;34442;52.362;-1.302;2022-12-18T14:14:14;99747.25;;;2.29;100.00
48652;BME280;34442;52.362;-1.302;2022-12-18T14:16:41;99737.97;;;2.24;100.00
48652;BME280;34442;52.362;-1.302;2022-12-18T14:19:12;99738.13;;;2.31;100.00
48652;BME280;34442;52.362;-1.302;2022-12-18T14:21:39;99728.38;;;2.23;100.00
48652;BME280;34442;52.362;-1.302;2022-12-18T14:26:33;99713.25;;;2.32;100.00
48652;BME280;34442;52.362;-1.302;2022-12-18T14:29:11;99710.28;;;2.35;100.00